Time;durP1;ratioP1;P1;durP2;ratioP2;P2;SDS_P1;SDS_P2;PMS_P1;PMS_P2;Temp;Humidity;BMP_temperature;BMP_pressure;BME280_temperature;BME280_humidity;BME280_pressure;Samples;Min_cycle;Max_cycle;Signal;HPM_P1;HPM_P2
2022/02/25 00:01:20;;;;;;;3.30;2.70;;;3.90;99.90;;;;;;5073799;28;20440;-64
2022/02/25 00:03:47;;;;;;;3.40;2.70;;;3.90;99.90;;;;;;5073787;28;20441;-64
2022/02/25 00:06:13;;;;;;;5.63;2.47;;;3.90;99.90;;;;;;5073940;28;20923;-64
2022/02/25 00:08:40;;;;;;;7.73;3.33;;;3.90;99.90;;;;;;5074043;28;20481;-65
2022/02/25 00:11:08;;;;;;;5.73;2.30;;;3.90;99.90;;;;;;5074082;28;20941;-64
2022/02/25 00:13:35;;;;;;;5.97;2.10;;;3.90;99.90;;;;;;5074141;28;20480;-64
2022/02/25 00:16:02;;;;;;;6.20;2.30;;;3.90;99.90;;;;;;5073695;28;20978;-64
2022/02/25 00:18:28;;;;;;;3.60;2.17;;;3.90;99.90;;;;;;5073975;28;20449;-65
2022/02/25 00:20:55;;;;;;;5.17;2.40;;;3.90;99.90;;;;;;5073738;28;20466;-64
2022/02/25 00:23:22;;;;;;;2.60;2.00;;;3.90;99.90;;;;;;5073726;28;20440;-64
2022/02/25 00:25:49;;;;;;;6.60;1.80;;;3.90;99.90;;;;;;5073676;28;20455;-64
2022/02/25 00:28:17;;;;;;;12.73;2.57;;;4.00;99.90;;;;;;5073519;28;20548;-64
2022/02/25 00:30:44;;;;;;;3.43;1.63;;;4.00;99.90;;;;;;5073525;28;20501;-64
2022/02/25 00:33:14;;;;;;;6.57;2.30;;;4.00;99.90;;;;;;5073417;28;20849;-64
2022/02/25 00:35:41;;;;;;;7.57;2.97;;;4.00;99.90;;;;;;5073685;28;20456;-64
2022/02/25 00:38:07;;;;;;;7.47;2.13;;;4.00;99.90;;;;;;5073967;28;20453;-64
2022/02/25 00:40:34;;;;;;;13.97;2.00;;;4.00;99.90;;;;;;5073374;28;20473;-64
2022/02/25 00:43:01;;;;;;;5.30;1.90;;;4.00;99.90;;;;;;5073611;28;20803;-64
2022/02/25 00:45:29;;;;;;;3.07;1.90;;;3.90;99.90;;;;;;5073525;28;20813;-63
2022/02/25 00:47:56;;;;;;;3.20;2.00;;;4.00;99.90;;;;;;5073439;28;20450;-63
2022/02/25 00:50:23;;;;;;;7.50;2.20;;;4.00;99.90;;;;;;5073358;28;20468;-64
2022/02/25 00:52:49;;;;;;;4.13;1.77;;;4.00;99.90;;;;;;5073229;28;20456;-64
2022/02/25 00:55:16;;;;;;;6.13;1.97;;;3.90;99.90;;;;;;5073207;28;20821;-64
2022/02/25 00:57:46;;;;;;;4.07;1.60;;;3.90;99.90;;;;;;5075692;28;20448;-64
2022/02/25 01:00:15;;;;;;;2.50;1.70;;;3.90;99.90;;;;;;5077405;28;20453;-63
2022/02/25 01:02:44;;;;;;;5.47;1.93;;;4.00;99.90;;;;;;5077241;28;20463;-63
2022/02/25 01:05:11;;;;;;;7.80;1.97;;;4.00;99.90;;;;;;5077357;28;20451;-63
2022/02/25 01:07:38;;;;;;;6.37;2.17;;;4.00;99.90;;;;;;5077048;28;20460;-63
2022/02/25 01:10:06;;;;;;;5.97;1.70;;;4.00;99.90;;;;;;5077297;28;20464;-64
2022/02/25 01:12:33;;;;;;;8.13;2.43;;;3.90;99.90;;;;;;5077102;28;20448;-64
2022/02/25 01:15:00;;;;;;;4.50;1.60;;;4.00;99.90;;;;;;5077110;28;20931;-64
2022/02/25 01:17:29;;;;;;;3.20;1.60;;;4.00;99.90;;;;;;5077267;28;20448;-63
2022/02/25 01:19:57;;;;;;;4.10;2.20;;;4.00;99.90;;;;;;5077242;28;20466;-64
2022/02/25 01:22:24;;;;;;;5.03;2.27;;;4.00;99.90;;;;;;5077685;28;20448;-64
2022/02/25 01:24:51;;;;;;;3.57;1.30;;;4.00;99.90;;;;;;5078158;28;20444;-64
2022/02/25 01:27:19;;;;;;;7.70;1.70;;;4.00;99.90;;;;;;5077371;28;20451;-64
2022/02/25 01:29:46;;;;;;;8.73;2.30;;;4.00;99.90;;;;;;5077223;28;20457;-63
2022/02/25 01:32:13;;;;;;;4.67;1.97;;;4.00;99.90;;;;;;5076847;28;20457;-63
2022/02/25 01:34:40;;;;;;;8.57;2.33;;;4.00;99.90;;;;;;5076712;28;20562;-63
2022/02/25 01:37:08;;;;;;;6.63;2.47;;;4.00;99.90;;;;;;5076694;28;20459;-63
2022/02/25 01:39:35;;;;;;;8.83;1.93;;;4.00;99.90;;;;;;5076492;28;20471;-63
2022/02/25 01:42:02;;;;;;;5.37;2.33;;;4.00;99.90;;;;;;5076490;28;20448;-64
2022/02/25 01:44:30;;;;;;;7.40;2.00;;;4.00;99.90;;;;;;5076459;28;20449;-63
2022/02/25 01:46:58;;;;;;;7.53;2.37;;;4.00;99.90;;;;;;5076121;28;20947;-63
2022/02/25 01:49:28;;;;;;;9.37;2.70;;;4.00;99.90;;;;;;5076322;28;20465;-64
2022/02/25 01:51:58;;;;;;;4.07;2.03;;;4.10;99.90;;;;;;5076397;28;20820;-64
2022/02/25 01:54:27;;;;;;;7.50;2.30;;;4.10;99.90;;;;;;5076196;28;20507;-63
2022/02/25 01:56:57;;;;;;;8.77;2.57;;;4.10;99.90;;;;;;5076261;28;20437;-63
2022/02/25 01:59:24;;;;;;;9.60;2.13;;;4.00;99.90;;;;;;5076205;28;20468;-64
2022/02/25 02:01:51;;;;;;;8.23;1.87;;;4.00;99.90;;;;;;5076118;28;20449;-64
2022/02/25 02:04:18;;;;;;;5.20;1.90;;;3.90;99.90;;;;;;5076033;28;20440;-64
2022/02/25 02:06:45;;;;;;;8.20;2.57;;;4.00;99.90;;;;;;5075853;28;20464;-64
2022/02/25 02:09:12;;;;;;;4.80;2.30;;;4.00;99.90;;;;;;5074646;28;20839;-64
2022/02/25 02:11:43;;;;;;;4.60;1.87;;;4.10;99.90;;;;;;5075909;28;20445;-64
2022/02/25 02:14:13;;;;;;;4.00;1.80;;;4.10;99.90;;;;;;5075524;28;20469;-63
2022/02/25 02:16:41;;;;;;;6.80;2.30;;;4.10;99.90;;;;;;5075851;28;20455;-63
2022/02/25 02:19:08;;;;;;;11.53;2.60;;;4.00;99.90;;;;;;5076038;28;20468;-63
2022/02/25 02:21:39;;;;;;;5.67;2.20;;;4.10;99.90;;;;;;5075886;28;20464;-63
2022/02/25 02:24:08;;;;;;;3.20;1.50;;;4.10;99.90;;;;;;5075797;28;20440;-63
2022/02/25 02:26:35;;;;;;;3.63;2.80;;;4.10;99.90;;;;;;5075473;28;21028;-63
2022/02/25 02:29:01;;;;;;;8.43;2.10;;;4.10;99.90;;;;;;5075743;28;20473;-64
2022/02/25 02:31:28;;;;;;;6.80;1.90;;;4.10;99.90;;;;;;5075726;28;20813;-64
2022/02/25 02:33:55;;;;;;;4.20;1.67;;;4.00;99.90;;;;;;5075848;28;20481;-64
2022/02/25 02:36:21;;;;;;;7.07;2.07;;;4.10;99.90;;;;;;5075774;28;20836;-64
2022/02/25 02:38:49;;;;;;;10.00;1.90;;;4.10;99.90;;;;;;5075605;28;20472;-64
2022/02/25 02:41:17;;;;;;;6.33;2.00;;;4.10;99.90;;;;;;5075692;28;20954;-64
2022/02/25 02:43:44;;;;;;;13.70;2.63;;;4.10;99.90;;;;;;5075532;28;20451;-64
2022/02/25 02:46:12;;;;;;;5.33;2.10;;;4.00;99.90;;;;;;5075328;28;20448;-63
2022/02/25 02:48:39;;;;;;;11.67;2.30;;;4.00;99.90;;;;;;5075237;28;20468;-64
2022/02/25 02:51:05;;;;;;;6.07;1.77;;;4.00;99.90;;;;;;5075179;28;20452;-64
2022/02/25 02:53:32;;;;;;;7.60;1.60;;;4.00;99.90;;;;;;5075100;28;20479;-64
2022/02/25 02:55:59;;;;;;;4.90;1.50;;;4.00;99.90;;;;;;5075089;28;20444;-64
2022/02/25 02:58:27;;;;;;;5.67;1.40;;;3.90;99.90;;;;;;5074913;28;20455;-65
2022/02/25 03:00:55;;;;;;;5.73;1.90;;;3.90;99.90;;;;;;5074956;28;20452;-64
2022/02/25 03:03:22;;;;;;;12.37;3.10;;;3.80;99.90;;;;;;5074895;28;20437;-64
2022/02/25 03:05:50;;;;;;;5.97;1.70;;;3.80;99.90;;;;;;5074560;28;20488;-64
2022/02/25 03:08:17;;;;;;;8.23;1.90;;;3.80;99.90;;;;;;5074475;28;20467;-64
2022/02/25 03:10:45;;;;;;;6.77;1.90;;;3.80;99.90;;;;;;5074413;28;20452;-64
2022/02/25 03:13:14;;;;;;;2.93;1.63;;;3.80;99.90;;;;;;5074250;28;20845;-64
2022/02/25 03:15:42;;;;;;;5.30;2.20;;;3.90;99.90;;;;;;5074615;28;20466;-64
2022/02/25 03:18:09;;;;;;;5.93;1.60;;;3.80;99.90;;;;;;5074649;28;20808;-63
2022/02/25 03:20:36;;;;;;;6.93;1.90;;;3.90;99.90;;;;;;5074093;28;20469;-63
2022/02/25 03:23:03;;;;;;;5.57;1.93;;;3.90;99.90;;;;;;5074488;28;20429;-63
2022/02/25 03:25:30;;;;;;;10.20;2.30;;;3.90;99.90;;;;;;5074425;28;20432;-63
2022/02/25 03:27:57;;;;;;;9.17;2.20;;;3.80;99.90;;;;;;5075534;28;20448;-63
2022/02/25 03:30:24;;;;;;;3.50;2.10;;;3.90;99.90;;;;;;5074248;28;20478;-64
2022/02/25 03:32:52;;;;;;;8.03;2.50;;;3.80;99.90;;;;;;5074311;28;20490;-64
2022/02/25 03:35:19;;;;;;;10.10;1.90;;;3.80;99.90;;;;;;5074198;28;20588;-63
2022/02/25 03:37:46;;;;;;;12.20;2.30;;;3.90;99.90;;;;;;5073920;28;20970;-63
2022/02/25 03:40:14;;;;;;;6.50;1.63;;;3.80;99.90;;;;;;5074128;28;20518;-64
2022/02/25 03:42:41;;;;;;;8.20;2.17;;;3.80;99.90;;;;;;5073805;28;21014;-64
2022/02/25 03:45:09;;;;;;;9.03;2.00;;;3.70;99.90;;;;;;5073780;28;20444;-64
2022/02/25 03:47:36;;;;;;;11.33;2.33;;;3.70;99.90;;;;;;5074105;28;20880;-63
2022/02/25 03:50:06;;;;;;;5.90;2.20;;;3.80;99.90;;;;;;5073505;28;20834;-64
2022/02/25 03:52:33;;;;;;;6.03;1.37;;;3.80;99.90;;;;;;5073646;28;20424;-63
2022/02/25 03:55:00;;;;;;;7.50;1.60;;;3.80;99.90;;;;;;5073830;28;20472;-63
2022/02/25 03:57:27;;;;;;;8.40;2.03;;;3.80;99.90;;;;;;5073594;28;20931;-63
2022/02/25 03:59:53;;;;;;;8.20;1.67;;;3.70;99.90;;;;;;5073810;28;20460;-64
2022/02/25 04:02:20;;;;;;;8.73;2.20;;;3.70;99.90;;;;;;5073766;28;20444;-64
2022/02/25 04:04:47;;;;;;;5.80;2.03;;;3.70;99.90;;;;;;5073759;28;20448;-63
2022/02/25 04:07:15;;;;;;;8.07;1.63;;;3.70;99.90;;;;;;5073506;28;20483;-64
2022/02/25 04:09:42;;;;;;;8.57;2.03;;;3.70;99.90;;;;;;5073640;28;20472;-64
2022/02/25 04:12:10;;;;;;;5.07;2.00;;;3.70;99.90;;;;;;5073641;28;20452;-64
2022/02/25 04:14:37;;;;;;;9.43;2.33;;;3.70;99.90;;;;;;5073304;28;20477;-63
2022/02/25 04:17:04;;;;;;;13.73;2.80;;;3.80;99.90;;;;;;5073620;28;20452;-63
2022/02/25 04:19:31;;;;;;;6.10;2.23;;;3.80;99.90;;;;;;5073502;28;20468;-64
2022/02/25 04:21:58;;;;;;;6.63;2.07;;;3.80;99.90;;;;;;5073279;28;20959;-63
2022/02/25 04:24:26;;;;;;;6.53;1.80;;;3.70;99.90;;;;;;5073554;28;20445;-63
2022/02/25 04:26:53;;;;;;;7.13;2.10;;;3.70;99.90;;;;;;5073622;28;20448;-63
2022/02/25 04:29:20;;;;;;;2.53;1.70;;;3.70;99.90;;;;;;5073856;28;20471;-64
2022/02/25 04:31:46;;;;;;;7.90;2.47;;;3.70;99.90;;;;;;5073301;28;20456;-64
2022/02/25 04:34:13;;;;;;;16.60;3.00;;;3.70;99.90;;;;;;5073714;28;20481;-64
2022/02/25 04:36:40;;;;;;;8.60;1.70;;;3.70;99.90;;;;;;5073736;28;20445;-64
2022/02/25 04:39:08;;;;;;;13.87;2.50;;;3.70;99.90;;;;;;5073824;28;20467;-64
2022/02/25 04:41:36;;;;;;;10.87;2.23;;;3.70;99.90;;;;;;5073920;28;20884;-64
2022/02/25 04:44:03;;;;;;;9.77;3.03;;;3.70;99.90;;;;;;5073895;28;20447;-64
2022/02/25 04:46:30;;;;;;;8.30;2.87;;;3.70;99.90;;;;;;5073828;28;20452;-64
2022/02/25 04:48:57;;;;;;;10.30;2.23;;;3.70;99.90;;;;;;5074008;28;20476;-64
2022/02/25 04:51:24;;;;;;;9.97;2.57;;;3.70;99.90;;;;;;5074061;28;20505;-64
2022/02/25 04:53:51;;;;;;;6.57;1.87;;;3.80;99.90;;;;;;5074556;28;20452;-63
2022/02/25 04:56:19;;;;;;;9.10;2.10;;;3.70;99.90;;;;;;5074086;28;20445;-63
2022/02/25 04:58:48;;;;;;;6.93;2.40;;;3.80;99.90;;;;;;5074489;28;20492;-64
2022/02/25 05:01:15;;;;;;;10.03;2.30;;;3.70;99.90;;;;;;5075610;28;20947;-64
2022/02/25 05:03:41;;;;;;;18.20;2.97;;;3.80;99.90;;;;;;5074141;28;21070;-64
2022/02/25 05:06:08;;;;;;;14.80;2.40;;;3.70;99.90;;;;;;5074713;28;20449;-63
2022/02/25 05:08:35;;;;;;;5.77;2.50;;;3.80;99.90;;;;;;5073490;28;20965;-63
2022/02/25 05:11:02;;;;;;;11.33;2.20;;;3.70;99.90;;;;;;5073692;28;20452;-63
2022/02/25 05:13:29;;;;;;;6.50;3.37;;;3.80;99.90;;;;;;5073848;28;20441;-63
2022/02/25 05:21:25;;;;;;;7.27;1.97;;;3.90;99.90;;;;;;5073167;28;20408;-63
2022/02/25 05:23:52;;;;;;;7.77;2.53;;;3.80;99.90;;;;;;5073449;28;20457;-63
2022/02/25 05:26:19;;;;;;;14.80;2.20;;;3.90;99.90;;;;;;5073171;28;20958;-63
2022/02/25 05:28:46;;;;;;;7.00;2.10;;;3.80;99.90;;;;;;5072829;28;20982;-64
2022/02/25 05:31:15;;;;;;;11.03;2.37;;;3.80;99.90;;;;;;5072940;28;20448;-63
2022/02/25 05:33:41;;;;;;;13.53;2.03;;;3.80;99.90;;;;;;5073240;28;20444;-64
2022/02/25 05:36:08;;;;;;;6.73;2.03;;;3.90;99.90;;;;;;5072696;28;21038;-63
2022/02/25 05:38:35;;;;;;;7.60;1.73;;;3.90;99.90;;;;;;5072657;28;20970;-64
2022/02/25 05:41:02;;;;;;;8.33;2.03;;;3.90;99.90;;;;;;5073010;28;20448;-64
2022/02/25 05:43:28;;;;;;;7.23;1.90;;;3.90;99.90;;;;;;5074770;28;20448;-64
2022/02/25 05:45:55;;;;;;;12.00;2.00;;;3.90;99.90;;;;;;5076583;28;20445;-64
2022/02/25 05:48:23;;;;;;;5.43;1.97;;;3.90;99.90;;;;;;5076384;28;20839;-65
2022/02/25 05:50:50;;;;;;;6.80;1.90;;;4.00;99.90;;;;;;5076470;28;20474;-64
2022/02/25 05:53:17;;;;;;;19.40;2.90;;;4.00;99.90;;;;;;5076521;28;20447;-64
2022/02/25 05:55:44;;;;;;;13.83;1.90;;;3.90;99.90;;;;;;5077273;28;20785;-64
2022/02/25 05:58:10;;;;;;;10.53;2.17;;;3.90;99.90;;;;;;5076284;28;20622;-64
2022/02/25 06:00:37;;;;;;;7.80;2.13;;;3.90;99.90;;;;;;5076423;28;20828;-64
2022/02/25 06:03:04;;;;;;;6.60;1.97;;;3.90;99.90;;;;;;5076223;28;20459;-64
2022/02/25 06:05:32;;;;;;;7.60;2.10;;;3.90;99.90;;;;;;5076114;28;20786;-64
2022/02/25 06:08:00;;;;;;;8.17;2.30;;;3.90;99.90;;;;;;5075892;28;20460;-65
2022/02/25 06:10:27;;;;;;;11.43;2.33;;;3.90;99.90;;;;;;5075902;28;20472;-64
2022/02/25 06:12:54;;;;;;;7.60;2.43;;;3.90;99.90;;;;;;5075941;28;20551;-65
2022/02/25 06:15:21;;;;;;;4.13;1.77;;;3.90;99.90;;;;;;5075850;28;20493;-64
2022/02/25 06:17:49;;;;;;;12.70;2.83;;;3.90;99.90;;;;;;5075934;28;20452;-64
2022/02/25 06:20:16;;;;;;;12.50;2.30;;;3.90;99.90;;;;;;5075486;28;20449;-64
2022/02/25 06:22:45;;;;;;;13.17;2.57;;;3.90;99.90;;;;;;5075691;28;20452;-64
2022/02/25 06:25:12;;;;;;;7.73;2.23;;;3.90;99.90;;;;;;5075792;28;20441;-64
2022/02/25 06:27:39;;;;;;;9.00;2.30;;;3.90;99.90;;;;;;5075665;28;20447;-64
2022/02/25 06:30:08;;;;;;;5.40;1.40;;;3.90;99.90;;;;;;5076067;28;20978;-63
2022/02/25 06:32:35;;;;;;;13.40;2.20;;;3.90;99.90;;;;;;5075527;28;20451;-63
2022/02/25 06:35:01;;;;;;;10.13;2.20;;;4.00;99.90;;;;;;5075393;28;20837;-63
2022/02/25 06:37:28;;;;;;;7.47;1.90;;;4.00;99.90;;;;;;5075136;28;20478;-63
2022/02/25 06:39:57;;;;;;;8.00;2.20;;;4.00;99.90;;;;;;5075371;28;20559;-64
2022/02/25 06:42:24;;;;;;;10.80;2.00;;;4.00;99.90;;;;;;5075325;28;20455;-64
2022/02/25 06:44:51;;;;;;;11.40;2.47;;;4.00;99.90;;;;;;5075402;28;20444;-64
2022/02/25 06:47:18;;;;;;;9.80;3.13;;;4.10;99.90;;;;;;5075263;28;20455;-63
2022/02/25 06:49:45;;;;;;;5.67;1.93;;;4.10;99.90;;;;;;5075101;28;20461;-63
2022/02/25 06:52:12;;;;;;;8.03;2.30;;;4.20;99.90;;;;;;5075444;28;20471;-65
2022/02/25 06:54:39;;;;;;;10.33;2.00;;;4.20;99.90;;;;;;5074015;28;20952;-63
2022/02/25 06:57:07;;;;;;;10.23;2.00;;;4.20;99.90;;;;;;5075008;28;20461;-63
2022/02/25 06:59:34;;;;;;;16.57;2.73;;;4.20;99.90;;;;;;5074977;28;20472;-64
2022/02/25 07:02:01;;;;;;;8.80;2.17;;;4.30;99.90;;;;;;5074904;28;20555;-64
2022/02/25 07:04:28;;;;;;;8.07;2.30;;;4.30;99.90;;;;;;5074819;28;20464;-64
2022/02/25 07:06:55;;;;;;;5.00;2.10;;;4.30;99.90;;;;;;5074311;28;20974;-65
2022/02/25 07:09:21;;;;;;;21.50;2.40;;;4.30;99.90;;;;;;5074717;28;20473;-64
2022/02/25 07:11:49;;;;;;;17.23;3.53;;;4.30;99.90;;;;;;5074770;28;20478;-64
2022/02/25 07:14:18;;;;;;;9.40;2.43;;;4.30;99.90;;;;;;5074706;28;20493;-64
2022/02/25 07:16:45;;;;;;;7.57;2.30;;;4.30;99.90;;;;;;5074560;28;20488;-64
2022/02/25 07:19:12;;;;;;;18.43;2.30;;;4.30;99.90;;;;;;5075113;28;20464;-64
2022/02/25 07:21:39;;;;;;;7.00;2.10;;;4.30;99.90;;;;;;5074487;28;20467;-64
2022/02/25 07:24:06;;;;;;;6.63;1.97;;;4.30;99.90;;;;;;5074535;28;20814;-64
2022/02/25 07:26:33;;;;;;;6.63;1.93;;;4.40;99.90;;;;;;5074421;28;20436;-64
2022/02/25 07:29:00;;;;;;;9.73;2.70;;;4.40;99.90;;;;;;5074538;28;20477;-64
2022/02/25 07:31:28;;;;;;;12.57;2.57;;;4.50;99.90;;;;;;5074063;28;20962;-64
2022/02/25 07:33:54;;;;;;;8.63;2.30;;;4.60;99.90;;;;;;5074357;28;20520;-64
2022/02/25 07:36:21;;;;;;;7.17;2.00;;;4.60;99.90;;;;;;5074116;28;20485;-64
2022/02/25 07:38:48;;;;;;;8.87;2.40;;;4.60;99.90;;;;;;5074144;28;20460;-64
2022/02/25 07:41:15;;;;;;;14.33;2.57;;;4.60;99.90;;;;;;5074165;28;20506;-64
2022/02/25 07:43:41;;;;;;;9.43;2.80;;;4.60;99.90;;;;;;5074056;28;20471;-64
2022/02/25 07:46:08;;;;;;;12.77;2.50;;;4.60;99.90;;;;;;5073882;28;20433;-64
2022/02/25 07:48:36;;;;;;;11.07;2.80;;;4.50;99.90;;;;;;5073913;28;20506;-64
2022/02/25 07:51:03;;;;;;;8.33;2.37;;;4.60;99.90;;;;;;5073946;28;20449;-64
2022/02/25 07:53:33;;;;;;;11.20;2.03;;;4.60;99.90;;;;;;5073875;28;20787;-64
2022/02/25 07:55:59;;;;;;;17.23;2.60;;;4.60;99.90;;;;;;5073915;28;20469;-64
2022/02/25 07:58:26;;;;;;;8.30;2.70;;;4.80;99.90;;;;;;5073805;28;20815;-65
2022/02/25 08:00:53;;;;;;;9.53;2.57;;;4.80;99.90;;;;;;5073820;28;20859;-64
2022/02/25 08:03:20;;;;;;;7.47;2.57;;;4.90;99.90;;;;;;5073755;28;20444;-64
2022/02/25 08:05:48;;;;;;;12.47;2.80;;;4.90;99.90;;;;;;5073369;28;20447;-63
2022/02/25 08:08:15;;;;;;;8.73;2.30;;;4.90;99.90;;;;;;5073013;28;20490;-64
2022/02/25 08:10:41;;;;;;;12.73;2.67;;;4.80;99.90;;;;;;5073702;28;20472;-64
2022/02/25 08:13:09;;;;;;;5.03;1.83;;;4.90;99.90;;;;;;5073429;28;20436;-64
2022/02/25 08:15:36;;;;;;;8.43;2.30;;;4.90;99.90;;;;;;5073180;28;20484;-64
2022/02/25 08:18:05;;;;;;;11.53;2.50;;;4.90;99.90;;;;;;5073609;28;20807;-64
2022/02/25 08:20:32;;;;;;;11.23;2.27;;;4.90;99.90;;;;;;5073168;28;20460;-64
2022/02/25 08:23:01;;;;;;;15.07;2.90;;;4.90;99.90;;;;;;5073626;28;20437;-64
2022/02/25 08:25:29;;;;;;;10.50;2.90;;;4.90;99.90;;;;;;5073561;28;20431;-64
2022/02/25 08:27:57;;;;;;;12.33;2.50;;;4.90;99.90;;;;;;5073101;28;20434;-64
2022/02/25 08:30:23;;;;;;;7.37;2.40;;;4.90;99.90;;;;;;5073011;28;20464;-64
2022/02/25 08:32:51;;;;;;;15.13;2.70;;;4.80;99.90;;;;;;5073573;28;20429;-64
2022/02/25 08:35:19;;;;;;;12.43;4.17;;;4.80;99.90;;;;;;5073402;28;20484;-64
2022/02/25 08:37:46;;;;;;;6.83;1.97;;;4.90;99.90;;;;;;5073931;28;20437;-64
2022/02/25 08:40:16;;;;;;;11.17;3.00;;;4.80;99.90;;;;;;5073828;28;20464;-64
2022/02/25 08:42:42;;;;;;;8.97;2.67;;;4.80;99.90;;;;;;5074101;28;20448;-65
2022/02/25 08:45:12;;;;;;;9.87;2.03;;;4.80;99.90;;;;;;5073480;28;20947;-64
2022/02/25 08:47:39;;;;;;;10.80;2.40;;;4.90;99.90;;;;;;5073703;28;20433;-64
2022/02/25 08:50:07;;;;;;;13.07;2.30;;;4.90;99.90;;;;;;5073101;28;20468;-64
2022/02/25 08:52:34;;;;;;;21.07;2.30;;;4.90;99.90;;;;;;5073082;28;20444;-64
2022/02/25 08:55:01;;;;;;;8.53;2.80;;;5.00;99.90;;;;;;5072972;28;20437;-64
2022/02/25 08:57:29;;;;;;;11.23;3.90;;;5.00;99.90;;;;;;5073468;28;20463;-64
2022/02/25 08:59:56;;;;;;;7.37;2.57;;;5.10;99.90;;;;;;5073160;28;20475;-64
2022/02/25 09:02:23;;;;;;;12.60;3.70;;;5.20;99.90;;;;;;5073568;28;20448;-64
2022/02/25 09:04:50;;;;;;;12.43;3.10;;;5.30;99.90;;;;;;5073209;28;20804;-64
2022/02/25 09:07:17;;;;;;;13.30;2.90;;;5.40;99.90;;;;;;5073252;28;20507;-64
2022/02/25 09:09:43;;;;;;;7.70;2.40;;;5.50;99.90;;;;;;5073359;28;20867;-64
2022/02/25 09:12:10;;;;;;;11.23;3.00;;;5.50;99.90;;;;;;5073260;28;20448;-64
2022/02/25 09:14:39;;;;;;;8.80;2.90;;;5.60;99.90;;;;;;5073324;28;20448;-64
2022/02/25 09:17:07;;;;;;;9.17;2.50;;;5.60;99.90;;;;;;5073075;28;20483;-64
2022/02/25 09:19:34;;;;;;;10.60;2.60;;;5.60;99.90;;;;;;5076904;28;20564;-65
2022/02/25 09:22:01;;;;;;;17.40;2.80;;;5.70;99.90;;;;;;5076950;28;20480;-64
2022/02/25 09:24:28;;;;;;;9.60;2.30;;;5.60;99.90;;;;;;5077021;28;20471;-64
2022/02/25 09:26:55;;;;;;;5.97;2.83;;;5.70;99.90;;;;;;5076934;28;20448;-64
2022/02/25 09:29:21;;;;;;;11.50;2.63;;;5.70;99.90;;;;;;5076765;28;20465;-64
2022/02/25 09:31:50;;;;;;;13.63;3.67;;;5.80;99.90;;;;;;5076678;28;20429;-64
2022/02/25 09:34:18;;;;;;;9.13;2.83;;;5.80;99.90;;;;;;5076647;28;20441;-64
2022/02/25 09:36:45;;;;;;;11.60;2.30;;;5.90;99.90;;;;;;5076629;28;20579;-64
2022/02/25 09:39:12;;;;;;;12.40;5.40;;;6.00;99.90;;;;;;5077048;28;20460;-64
2022/02/25 09:41:40;;;;;;;10.90;2.97;;;6.00;99.90;;;;;;5076485;28;20445;-64
2022/02/25 09:44:07;;;;;;;10.87;3.33;;;6.00;99.90;;;;;;5076507;28;20447;-64
2022/02/25 09:46:34;;;;;;;13.87;3.07;;;6.10;99.90;;;;;;5076461;28;20809;-64
2022/02/25 09:49:03;;;;;;;8.80;2.60;;;6.10;99.90;;;;;;5076294;28;20470;-63
2022/02/25 09:51:30;;;;;;;11.07;3.30;;;6.10;99.90;;;;;;5076358;28;20448;-64
2022/02/25 09:53:57;;;;;;;10.23;3.10;;;6.20;99.90;;;;;;5076318;28;20452;-64
2022/02/25 09:56:24;;;;;;;8.70;2.70;;;6.20;99.90;;;;;;5076149;28;20476;-64
2022/02/25 09:58:51;;;;;;;15.47;3.70;;;6.40;99.90;;;;;;5076251;28;20472;-64
2022/02/25 10:01:18;;;;;;;14.30;3.13;;;6.50;99.90;;;;;;5076113;28;20480;-64
2022/02/25 10:03:51;;;;;;;9.13;3.73;;;6.50;99.90;;;;;;5075748;28;20451;-64
2022/02/25 10:06:19;;;;;;;19.37;3.30;;;6.60;99.90;;;;;;5076389;28;20901;-64
2022/02/25 10:08:46;;;;;;;19.33;3.37;;;6.60;99.90;;;;;;5075508;28;20473;-65
2022/02/25 10:11:13;;;;;;;12.80;4.43;;;6.60;99.90;;;;;;5075886;28;20459;-64
2022/02/25 10:13:40;;;;;;;16.47;2.67;;;6.60;99.90;;;;;;5075891;28;20460;-64
2022/02/25 10:16:10;;;;;;;11.90;3.40;;;6.80;99.90;;;;;;5075779;28;20488;-64
2022/02/25 10:18:37;;;;;;;10.53;2.53;;;6.90;99.90;;;;;;5076598;28;20531;-65
2022/02/25 10:21:07;;;;;;;13.40;3.40;;;7.00;99.90;;;;;;5075788;28;20445;-64
2022/02/25 10:23:37;;;;;;;12.53;3.07;;;7.10;99.90;;;;;;5075753;28;20456;-64
2022/02/25 10:26:12;;;;;;;8.03;3.70;;;7.20;99.90;;;;;;5075749;28;20425;-64
2022/02/25 10:28:41;;;;;;;11.27;3.53;;;7.40;99.90;;;;;;5074982;28;20440;-64
2022/02/25 10:31:18;;;;;;;12.93;3.90;;;7.30;99.90;;;;;;5074610;28;20437;-64
2022/02/25 10:33:45;;;;;;;12.97;3.10;;;7.30;99.90;;;;;;5075559;28;20436;-64
2022/02/25 10:36:12;;;;;;;9.80;3.53;;;7.30;99.90;;;;;;5075417;28;20480;-64
2022/02/25 10:38:40;;;;;;;10.70;2.90;;;7.30;99.90;;;;;;5075359;28;20448;-65
2022/02/25 10:41:07;;;;;;;8.87;3.30;;;7.10;99.90;;;;;;5075531;28;20444;-64
2022/02/25 10:43:34;;;;;;;11.00;3.30;;;7.10;99.90;;;;;;5075364;28;20464;-64
2022/02/25 10:46:10;;;;;;;17.43;4.40;;;7.10;99.90;;;;;;5075313;28;20445;-64
2022/02/25 10:48:37;;;;;;;15.73;3.33;;;7.30;99.90;;;;;;5075242;28;20798;-65
2022/02/25 10:51:06;;;;;;;12.13;3.30;;;7.30;99.90;;;;;;5075175;28;20466;-64
2022/02/25 10:53:34;;;;;;;12.47;3.47;;;7.40;99.90;;;;;;5075132;28;20456;-64
2022/02/25 10:56:07;;;;;;;12.87;3.40;;;7.70;99.90;;;;;;5074725;28;20847;-64
2022/02/25 10:58:41;;;;;;;17.90;4.00;;;8.00;99.90;;;;;;5074969;28;20512;-64
2022/02/25 11:01:07;;;;;;;9.63;3.10;;;8.10;99.90;;;;;;5075121;28;20435;-64
2022/02/25 11:03:34;;;;;;;6.17;3.37;;;8.40;99.90;;;;;;5074740;28;20456;-64
2022/02/25 11:06:01;;;;;;;13.13;3.27;;;8.50;99.50;;;;;;5074984;28;20444;-64
2022/02/25 11:08:28;;;;;;;13.67;3.17;;;8.50;99.30;;;;;;5074503;28;20464;-64
2022/02/25 11:10:56;;;;;;;10.37;4.00;;;8.40;99.30;;;;;;5074934;28;20452;-64
2022/02/25 11:13:25;;;;;;;16.43;4.37;;;8.30;99.90;;;;;;5074817;28;20452;-64
2022/02/25 11:15:53;;;;;;;15.70;3.93;;;8.10;99.50;;;;;;5074781;28;20410;-64
2022/02/25 11:18:21;;;;;;;13.17;3.80;;;8.00;99.90;;;;;;5074642;28;20451;-64
2022/02/25 11:20:50;;;;;;;10.33;3.97;;;7.90;99.90;;;;;;5074587;28;20473;-64
2022/02/25 11:23:18;;;;;;;6.17;2.87;;;7.80;99.90;;;;;;5074846;28;20444;-64
2022/02/25 11:25:46;;;;;;;6.57;3.37;;;7.70;99.90;;;;;;5074614;28;20459;-64
2022/02/25 11:28:14;;;;;;;20.00;4.17;;;7.60;99.90;;;;;;5074224;28;20904;-66
2022/02/25 11:30:48;;;;;;;12.07;3.37;;;7.60;99.90;;;;;;5074042;28;20971;-65
2022/02/25 11:33:17;;;;;;;13.23;3.97;;;7.50;99.90;;;;;;5075139;28;20433;-64
2022/02/25 11:35:51;;;;;;;12.17;3.40;;;7.60;99.90;;;;;;5074351;28;20448;-64
2022/02/25 11:38:28;;;;;;;10.27;2.77;;;7.90;99.90;;;;;;5074235;28;20440;-64
2022/02/25 11:41:04;;;;;;;13.30;3.80;;;8.30;99.90;;;;;;5073992;28;20486;-64
2022/02/25 11:43:33;;;;;;;14.53;3.83;;;8.60;99.90;;;;;;5074180;28;20457;-64
2022/02/25 11:46:01;;;;;;;13.50;4.47;;;8.70;99.70;;;;;;5073802;28;20897;-64
2022/02/25 11:48:39;;;;;;;14.80;3.47;;;8.60;98.90;;;;;;5074023;28;20451;-65
2022/02/25 11:51:07;;;;;;;11.50;3.33;;;8.40;99.30;;;;;;5073721;28;20942;-64
2022/02/25 11:53:33;;;;;;;14.43;4.37;;;8.30;99.70;;;;;;5073799;28;20460;-64
2022/02/25 11:56:15;;;;;;;12.77;4.20;;;8.20;99.90;;;;;;5073941;28;20444;-64
2022/02/25 11:58:48;;;;;;;12.90;4.37;;;8.10;99.90;;;;;;5073947;28;20436;-65
2022/02/25 12:01:19;;;;;;;12.57;3.80;;;8.20;99.90;;;;;;5073647;28;20896;-64
2022/02/25 12:04:09;;;;;;;10.20;4.07;;;8.30;99.90;;;;;;5073950;28;20441;-64
2022/02/25 12:06:59;;;;;;;9.30;3.60;;;8.30;99.90;;;;;;5073389;28;20500;-65
2022/02/25 12:09:48;;;;;;;12.20;4.47;;;8.30;99.90;;;;;;5073777;28;20473;-65
2022/02/25 12:12:34;;;;;;;9.60;3.80;;;8.40;99.20;;;;;;5073758;28;20441;-64
2022/02/25 12:15:03;;;;;;;14.93;3.60;;;8.60;99.40;;;;;;5073360;28;20856;-64
2022/02/25 12:17:40;;;;;;;18.10;4.10;;;8.40;98.60;;;;;;5074179;28;20530;-64
2022/02/25 12:20:08;;;;;;;19.17;4.23;;;8.30;99.30;;;;;;5073736;28;20468;-64
2022/02/25 12:22:53;;;;;;;14.90;4.43;;;8.10;99.90;;;;;;5074061;28;20463;-64
2022/02/25 12:25:43;;;;;;;11.80;4.27;;;7.80;99.90;;;;;;5073915;28;20967;-65
2022/02/25 12:28:40;;;;;;;11.93;3.90;;;7.60;99.90;;;;;;5073779;28;20518;-64
2022/02/25 12:31:09;;;;;;;20.03;5.70;;;7.40;99.90;;;;;;5073790;28;20421;-64
2022/02/25 12:33:39;;;;;;;16.93;4.87;;;7.40;99.90;;;;;;5073536;28;20456;-64
2022/02/25 12:36:12;;;;;;;12.03;3.53;;;7.10;99.90;;;;;;5073529;28;20428;-64
2022/02/25 12:38:41;;;;;;;7.10;2.67;;;6.80;99.90;;;;;;5073394;28;20561;-65
2022/02/25 12:41:15;;;;;;;12.00;3.40;;;6.60;99.90;;;;;;5073318;28;20433;-64
2022/02/25 12:43:51;;;;;;;9.17;3.30;;;6.50;99.90;;;;;;5073308;28;20938;-64
2022/02/25 12:46:18;;;;;;;8.00;3.00;;;6.30;99.90;;;;;;5073699;28;20817;-64
2022/02/25 12:48:47;;;;;;;9.67;3.30;;;6.30;99.90;;;;;;5073418;28;20460;-66
2022/02/25 12:51:15;;;;;;;10.77;3.93;;;6.30;99.90;;;;;;5073393;28;20888;-65
2022/02/25 12:53:50;;;;;;;11.73;3.63;;;6.50;99.90;;;;;;5075614;28;20813;-66
2022/02/25 12:56:20;;;;;;;10.87;4.80;;;6.60;99.90;;;;;;5077433;28;20450;-65
2022/02/25 12:58:48;;;;;;;13.17;4.23;;;6.80;99.90;;;;;;5077177;28;20445;-65
2022/02/25 13:01:20;;;;;;;12.63;3.90;;;7.20;99.90;;;;;;5077004;28;20985;-64
2022/02/25 13:03:57;;;;;;;7.77;3.13;;;7.90;99.90;;;;;;5077276;28;20449;-64